Time;durP1;ratioP1;P1;durP2;ratioP2;P2;SDS_P1;SDS_P2;PMS_P1;PMS_P2;Temp;Humidity;BMP_temperature;BMP_pressure;BME280_temperature;BME280_humidity;BME280_pressure;Samples;Min_cycle;Max_cycle;Signal;HPM_P1;HPM_P2
2023/04/27 00:01:12;;;;;;;;;;;;;;;6.53;100.00;95900.78;5078242;28;19929;-73
2023/04/27 00:03:38;;;;;;;;;;;;;;;6.45;100.00;95895.13;5087277;28;19993;-73
2023/04/27 00:06:04;;;;;;;;;;;;;;;6.29;100.00;95894.97;5083803;28;19935;-73
2023/04/27 00:08:31;;;;;;;;;;;;;;;6.23;100.00;95897.81;5076147;28;19932;-73
2023/04/27 00:10:59;;;;;;;;;;;;;;;6.22;100.00;95897.88;5087839;28;19950;-73
2023/04/27 00:13:25;;;;;;;;;;;;;;;6.23;100.00;95892.69;5080802;28;19925;-73
2023/04/27 00:15:52;;;;;;;;;;;;;;;6.30;100.00;95893.22;5087253;28;19930;-73
2023/04/27 00:18:18;;;;;;;;;;;;;;;6.23;100.00;95899.53;5081907;28;19947;-73
2023/04/27 00:20:44;;;;;;;;;;;;;;;6.23;100.00;95902.09;5081322;28;19928;-73
2023/04/27 00:23:10;;;;;;;;;;;;;;;6.28;100.00;95900.19;5084689;28;19977;-73
2023/04/27 00:25:37;;;;;;;;;;;;;;;6.16;100.00;95893.84;5079887;28;19951;-73
2023/04/27 00:28:05;;;;;;;;;;;;;;;6.14;100.00;95889.66;5084468;28;20325;-73
2023/04/27 00:30:31;;;;;;;;;;;;;;;6.17;100.00;95890.34;5078196;28;20299;-73
2023/04/27 00:32:57;;;;;;;;;;;;;;;6.22;100.00;95880.69;5088989;28;19928;-73
2023/04/27 00:35:23;;;;;;;;;;;;;;;6.16;100.00;95875.00;5083462;28;19933;-73
2023/04/27 00:37:50;;;;;;;;;;;;;;;6.23;100.00;95878.97;5086901;28;19982;-73
2023/04/27 00:40:16;;;;;;;;;;;;;;;6.18;100.00;95878.34;5082747;28;19978;-73
2023/04/27 00:42:42;;;;;;;;;;;;;;;6.19;100.00;95870.56;5088298;28;19924;-73
2023/04/27 00:45:10;;;;;;;;;;;;;;;6.19;100.00;95862.84;5089754;28;20428;-73
2023/04/27 00:47:37;;;;;;;;;;;;;;;6.19;100.00;95856.84;5079025;28;19925;-73
2023/04/27 00:50:07;;;;;;;;;;;;;;;6.16;100.00;95854.44;5085233;28;19980;-73
2023/04/27 00:52:33;;;;;;;;;;;;;;;6.12;100.00;95855.44;5076765;28;19973;-73
2023/04/27 00:55:02;;;;;;;;;;;;;;;6.10;100.00;95854.69;5079087;28;19928;-73
2023/04/27 00:57:29;;;;;;;;;;;;;;;5.98;100.00;95854.31;5082574;28;19925;-73
2023/04/27 00:59:55;;;;;;;;;;;;;;;6.02;100.00;95868.72;5086054;28;19924;-73
2023/04/27 01:02:23;;;;;;;;;;;;;;;5.87;100.00;95874.50;5083999;28;19931;-72
2023/04/27 01:04:50;;;;;;;;;;;;;;;5.94;100.00;95875.94;5083310;28;19939;-73
2023/04/27 01:07:17;;;;;;;;;;;;;;;5.75;100.00;95875.00;5085720;28;19931;-73
2023/04/27 01:09:43;;;;;;;;;;;;;;;5.80;100.00;95880.78;5079188;28;19979;-73
2023/04/27 01:12:10;;;;;;;;;;;;;;;5.88;100.00;95877.88;5077490;28;19928;-73
2023/04/27 01:14:36;;;;;;;;;;;;;;;5.93;100.00;95875.97;5072603;28;19929;-73
2023/04/27 01:17:02;;;;;;;;;;;;;;;5.95;100.00;95877.59;5080727;28;20418;-73
2023/04/27 01:19:30;;;;;;;;;;;;;;;5.90;100.00;95881.25;5075566;28;20302;-73
2023/04/27 01:21:56;;;;;;;;;;;;;;;5.84;100.00;95882.31;5083543;28;19924;-73
2023/04/27 01:24:24;;;;;;;;;;;;;;;5.80;100.00;95889.31;5072660;28;19924;-73
2023/04/27 01:26:52;;;;;;;;;;;;;;;5.79;100.00;95882.53;5070628;28;19977;-73
2023/04/27 01:29:18;;;;;;;;;;;;;;;5.79;100.00;95879.97;5081033;28;19924;-73
2023/04/27 01:31:45;;;;;;;;;;;;;;;5.80;100.00;95879.03;5079052;28;20303;-73
2023/04/27 01:34:11;;;;;;;;;;;;;;;5.86;100.00;95879.69;5080466;28;19968;-73
2023/04/27 01:36:37;;;;;;;;;;;;;;;5.73;100.00;95875.06;5085898;28;20143;-73
2023/04/27 01:39:07;;;;;;;;;;;;;;;5.67;100.00;95875.31;5080623;28;19970;-73
2023/04/27 01:41:35;;;;;;;;;;;;;;;5.63;100.00;95876.34;5079001;28;19932;-73
2023/04/27 01:44:02;;;;;;;;;;;;;;;5.59;100.00;95865.34;5064841;28;20003;-73
2023/04/27 01:46:28;;;;;;;;;;;;;;;5.63;100.00;95866.06;5076829;28;20008;-73
2023/04/27 01:48:54;;;;;;;;;;;;;;;5.58;100.00;95873.13;5073142;28;20325;-73
2023/04/27 01:51:20;;;;;;;;;;;;;;;5.51;100.00;95871.72;5076236;28;20010;-73
2023/04/27 01:53:47;;;;;;;;;;;;;;;5.55;100.00;95875.81;5076384;28;19924;-73
2023/04/27 01:56:13;;;;;;;;;;;;;;;5.56;100.00;95880.91;5071897;28;19925;-73
2023/04/27 01:58:41;;;;;;;;;;;;;;;5.56;100.00;95875.78;5081488;28;19931;-73
2023/04/27 02:01:07;;;;;;;;;;;;;;;5.61;100.00;95877.31;5079257;28;20402;-73
2023/04/27 02:03:33;;;;;;;;;;;;;;;5.65;100.00;95884.00;5076795;28;19947;-73
2023/04/27 02:05:59;;;;;;;;;;;;;;;5.69;100.00;95882.97;5078227;28;20405;-73
2023/04/27 02:08:26;;;;;;;;;;;;;;;5.71;100.00;95886.28;5075529;28;19929;-73
2023/04/27 02:10:52;;;;;;;;;;;;;;;5.74;100.00;95888.75;5074294;28;19924;-73
2023/04/27 02:13:18;;;;;;;;;;;;;;;5.77;100.00;95891.19;5073817;28;20335;-73
2023/04/27 02:15:46;;;;;;;;;;;;;;;5.74;100.00;95886.16;5080874;28;19978;-73
2023/04/27 02:18:13;;;;;;;;;;;;;;;5.74;100.00;95878.47;5077003;28;20015;-73
2023/04/27 02:20:39;;;;;;;;;;;;;;;5.73;100.00;95889.66;5087143;28;20005;-73
2023/04/27 02:23:05;;;;;;;;;;;;;;;5.72;100.00;95888.81;5087137;28;19970;-73
2023/04/27 02:25:31;;;;;;;;;;;;;;;5.75;100.00;95878.41;5080627;28;19931;-73
2023/04/27 02:27:58;;;;;;;;;;;;;;;5.79;100.00;95885.09;5089221;28;19924;-73
2023/04/27 02:30:24;;;;;;;;;;;;;;;5.76;100.00;95882.66;5082385;28;19950;-73
2023/04/27 02:32:51;;;;;;;;;;;;;;;5.70;100.00;95889.78;5087368;28;19932;-73
2023/04/27 02:35:18;;;;;;;;;;;;;;;5.65;100.00;95891.72;5082837;28;20429;-73
2023/04/27 02:37:44;;;;;;;;;;;;;;;5.63;100.00;95888.34;5078162;28;19997;-73
2023/04/27 02:40:11;;;;;;;;;;;;;;;5.62;100.00;95890.09;5076609;28;19930;-73
2023/04/27 02:42:38;;;;;;;;;;;;;;;5.63;100.00;95893.50;5071324;28;19925;-73
2023/04/27 02:45:05;;;;;;;;;;;;;;;5.58;100.00;95894.53;5080469;28;19928;-72
2023/04/27 02:47:31;;;;;;;;;;;;;;;5.63;100.00;95898.63;5072947;28;19928;-73
2023/04/27 02:49:59;;;;;;;;;;;;;;;5.57;100.00;95892.84;5072330;28;19940;-73
2023/04/27 02:52:25;;;;;;;;;;;;;;;5.59;100.00;95893.63;5063562;28;19932;-73
2023/04/27 02:54:52;;;;;;;;;;;;;;;5.64;100.00;95880.59;5082667;28;19935;-72
2023/04/27 02:57:18;;;;;;;;;;;;;;;5.67;100.00;95885.59;5081756;28;19924;-72
2023/04/27 02:59:44;;;;;;;;;;;;;;;5.65;100.00;95887.41;5072636;28;19940;-73
2023/04/27 03:02:11;;;;;;;;;;;;;;;5.63;100.00;95899.47;5076924;28;19924;-72
2023/04/27 03:04:37;;;;;;;;;;;;;;;5.63;100.00;95883.22;5084027;28;19928;-73
2023/04/27 03:07:05;;;;;;;;;;;;;;;5.63;100.00;95885.78;5083101;28;20375;-73
2023/04/27 03:09:31;;;;;;;;;;;;;;;5.65;100.00;95887.41;5064567;28;19971;-73
2023/04/27 03:11:57;;;;;;;;;;;;;;;5.66;100.00;95886.50;5070438;28;20293;-73
2023/04/27 03:14:23;;;;;;;;;;;;;;;5.58;100.00;95891.13;5077071;28;19924;-73
2023/04/27 03:16:50;;;;;;;;;;;;;;;5.54;100.00;95889.56;5081972;28;19978;-73
2023/04/27 03:19:16;;;;;;;;;;;;;;;5.52;100.00;95889.63;5075432;28;19950;-73
2023/04/27 03:21:42;;;;;;;;;;;;;;;5.51;100.00;95887.13;5076708;28;19977;-73
2023/04/27 03:24:10;;;;;;;;;;;;;;;5.49;100.00;95884.63;5073571;28;19982;-73
2023/04/27 03:26:36;;;;;;;;;;;;;;;5.53;100.00;95891.31;5078140;28;19998;-73
2023/04/27 03:29:03;;;;;;;;;;;;;;;5.57;100.00;95894.59;5076943;28;19978;-73
2023/04/27 03:31:29;;;;;;;;;;;;;;;5.59;100.00;95882.50;5078674;28;19988;-74
2023/04/27 03:33:55;;;;;;;;;;;;;;;5.56;100.00;95891.19;5082972;28;19928;-73
2023/04/27 03:36:22;;;;;;;;;;;;;;;5.52;100.00;95892.19;5085483;28;19966;-73
2023/04/27 03:38:48;;;;;;;;;;;;;;;5.48;100.00;95890.66;5068999;28;19928;-73
2023/04/27 03:41:16;;;;;;;;;;;;;;;5.53;100.00;95899.03;5066514;28;19936;-73
2023/04/27 03:43:42;;;;;;;;;;;;;;;5.53;100.00;95888.75;5071171;28;20329;-75
2023/04/27 03:46:08;;;;;;;;;;;;;;;5.55;100.00;95894.63;5072457;28;19978;-73
2023/04/27 03:48:35;;;;;;;;;;;;;;;5.58;100.00;95889.38;5079343;28;20283;-73
2023/04/27 03:51:01;;;;;;;;;;;;;;;5.65;100.00;95896.84;5077194;28;19925;-74
2023/04/27 03:53:28;;;;;;;;;;;;;;;5.73;100.00;95894.78;5076993;28;19928;-74
2023/04/27 03:55:54;;;;;;;;;;;;;;;5.71;100.00;95886.28;5075736;28;19931;-75
2023/04/27 03:58:21;;;;;;;;;;;;;;;5.70;100.00;95882.06;5081513;28;19982;-76
2023/04/27 04:00:48;;;;;;;;;;;;;;;5.70;100.00;95892.34;5073554;28;19982;-72
2023/04/27 04:03:14;;;;;;;;;;;;;;;5.70;100.00;95889.78;5077777;28;20368;-74
2023/04/27 04:05:40;;;;;;;;;;;;;;;5.70;100.00;95892.34;5076032;28;19924;-75
2023/04/27 04:08:07;;;;;;;;;;;;;;;5.56;100.00;95895.47;5069593;28;20457;-74
2023/04/27 04:10:33;;;;;;;;;;;;;;;5.43;100.00;95895.16;5072421;28;19928;-74
2023/04/27 04:12:59;;;;;;;;;;;;;;;5.43;100.00;95895.16;5076017;28;19935;-75
2023/04/27 04:15:27;;;;;;;;;;;;;;;5.50;100.00;95901.72;5086044;28;19928;-75
2023/04/27 04:17:53;;;;;;;;;;;;;;;5.60;100.00;95902.19;5071496;28;19924;-75
2023/04/27 04:20:19;;;;;;;;;;;;;;;5.53;100.00;95901.59;5081660;28;20321;-75
2023/04/27 04:22:46;;;;;;;;;;;;;;;5.47;100.00;95901.84;5078791;28;20345;-75
2023/04/27 04:25:12;;;;;;;;;;;;;;;5.44;100.00;95904.53;5085120;28;19928;-75
2023/04/27 04:27:39;;;;;;;;;;;;;;;5.41;100.00;95896.94;5086955;28;20394;-75
2023/04/27 04:30:06;;;;;;;;;;;;;;;5.40;100.00;95899.56;5084261;28;19936;-74
2023/04/27 04:32:36;;;;;;;;;;;;;;;5.43;100.00;95905.41;5089807;28;19924;-75
2023/04/27 04:35:04;;;;;;;;;;;;;;;5.40;100.00;95905.53;5083966;28;19924;-75
2023/04/27 04:37:32;;;;;;;;;;;;;;;5.53;100.00;95904.16;5089928;28;20314;-75
2023/04/27 04:39:58;;;;;;;;;;;;;;;5.45;100.00;95906.22;5081132;28;19929;-75
2023/04/27 04:42:25;;;;;;;;;;;;;;;5.37;100.00;95905.66;5082910;28;19935;-75
2023/04/27 04:44:51;;;;;;;;;;;;;;;5.38;100.00;95911.63;5087290;28;20415;-76
2023/04/27 04:47:17;;;;;;;;;;;;;;;5.33;100.00;95915.22;5082105;28;20294;-75
2023/04/27 04:49:45;;;;;;;;;;;;;;;5.34;100.00;95898.94;5084779;28;20398;-73
2023/04/27 04:52:11;;;;;;;;;;;;;;;5.32;100.00;95912.72;5084602;28;20332;-76
2023/04/27 04:54:37;;;;;;;;;;;;;;;5.34;100.00;95908.38;5085240;28;19928;-75
2023/04/27 04:57:06;;;;;;;;;;;;;;;5.33;100.00;95915.22;5086899;28;19928;-75
2023/04/27 04:59:33;;;;;;;;;;;;;;;5.33;100.00;95914.38;5080764;28;19931;-74
2023/04/27 05:01:59;;;;;;;;;;;;;;;5.35;100.00;95904.91;5086776;28;19961;-74
2023/04/27 05:04:25;;;;;;;;;;;;;;;5.36;100.00;95908.31;5079463;28;19932;-75
2023/04/27 05:06:53;;;;;;;;;;;;;;;5.36;100.00;95898.84;5087615;28;19924;-75
2023/04/27 05:09:19;;;;;;;;;;;;;;;5.38;100.00;95906.50;5085349;28;19928;-75
2023/04/27 05:11:45;;;;;;;;;;;;;;;5.41;100.00;95899.50;5087249;28;19931;-75
2023/04/27 05:14:11;;;;;;;;;;;;;;;5.47;100.00;95908.72;5086753;28;19924;-75
2023/04/27 05:16:38;;;;;;;;;;;;;;;5.57;100.00;95907.44;5087662;28;19925;-75
2023/04/27 05:19:05;;;;;;;;;;;;;;;5.73;100.00;95911.03;5083520;28;19974;-74
2023/04/27 05:21:31;;;;;;;;;;;;;;;5.72;100.00;95913.69;5088491;28;20125;-74
2023/04/27 05:23:58;;;;;;;;;;;;;;;5.73;100.00;95925.63;5081940;28;19936;-74
2023/04/27 05:26:25;;;;;;;;;;;;;;;5.78;100.00;95926.25;5073609;28;19925;-75
2023/04/27 05:28:51;;;;;;;;;;;;;;;5.78;100.00;95923.69;5086137;28;19928;-74
2023/04/27 05:31:17;;;;;;;;;;;;;;;5.80;100.00;95925.31;5083655;28;19927;-75
2023/04/27 05:33:43;;;;;;;;;;;;;;;5.87;100.00;95923.31;5083643;28;20309;-74
2023/04/27 05:36:10;;;;;;;;;;;;;;;5.94;100.00;95932.50;5086954;28;19928;-75
2023/04/27 05:38:38;;;;;;;;;;;;;;;6.05;100.00;95930.28;5085460;28;19924;-76
2023/04/27 05:41:06;;;;;;;;;;;;;;;6.06;100.00;95918.28;5081260;28;19977;-75
2023/04/27 05:43:33;;;;;;;;;;;;;;;6.01;100.00;95930.50;5087023;28;20010;-75
2023/04/27 05:46:00;;;;;;;;;;;;;;;6.02;100.00;95933.00;5075243;28;19931;-75
2023/04/27 05:48:26;;;;;;;;;;;;;;;6.12;100.00;95932.59;5085215;28;20356;-75
2023/04/27 05:50:58;;;;;;;;;;;;;;;6.10;100.00;95931.84;5081099;28;20014;-76
2023/04/27 05:53:25;;;;;;;;;;;;;;;6.15;100.00;95938.44;5087324;28;19924;-76
2023/04/27 05:55:51;;;;;;;;;;;;;;;6.17;100.00;95943.53;5081929;28;19977;-75
2023/04/27 05:58:19;;;;;;;;;;;;;;;6.17;100.00;95941.78;5084779;28;19926;-76
2023/04/27 06:00:45;;;;;;;;;;;;;;;6.23;100.00;95938.09;5082188;28;20011;-75
2023/04/27 06:03:11;;;;;;;;;;;;;;;6.23;100.00;95943.25;5083386;28;19924;-76
2023/04/27 06:05:37;;;;;;;;;;;;;;;6.20;100.00;95941.66;5086722;28;20440;-75
2023/04/27 06:08:04;;;;;;;;;;;;;;;6.28;100.00;95943.91;5079427;28;20343;-75
2023/04/27 06:10:30;;;;;;;;;;;;;;;6.28;100.00;95949.88;5081738;28;19925;-74
2023/04/27 06:12:56;;;;;;;;;;;;;;;6.41;100.00;95959.63;5081816;28;19932;-74
2023/04/27 06:15:24;;;;;;;;;;;;;;;6.57;100.00;95970.94;5087094;28;20298;-75
2023/04/27 06:17:50;;;;;;;;;;;;;;;6.63;100.00;95965.50;5087909;28;19924;-75
2023/04/27 06:20:16;;;;;;;;;;;;;;;6.54;100.00;95965.94;5080485;28;19943;-75
2023/04/27 06:22:45;;;;;;;;;;;;;;;6.62;100.00;95961.28;5088514;28;19924;-75
2023/04/27 06:25:11;;;;;;;;;;;;;;;6.49;100.00;95963.56;5074850;28;19969;-75
2023/04/27 06:27:38;;;;;;;;;;;;;;;6.88;100.00;95970.41;5085175;28;19948;-75
2023/04/27 06:30:05;;;;;;;;;;;;;;;7.00;100.00;95969.84;5073180;28;19928;-75
2023/04/27 06:32:32;;;;;;;;;;;;;;;7.36;100.00;95976.78;5085690;28;19929;-75
2023/04/27 06:34:59;;;;;;;;;;;;;;;7.19;100.00;95969.00;5079975;28;20007;-75
2023/04/27 06:37:25;;;;;;;;;;;;;;;7.37;100.00;95982.78;5085401;28;19925;-76
2023/04/27 06:39:51;;;;;;;;;;;;;;;7.50;100.00;95973.56;5088798;28;19930;-75
2023/04/27 06:42:17;;;;;;;;;;;;;;;7.43;100.00;95967.03;5081628;28;20325;-75
2023/04/27 06:44:44;;;;;;;;;;;;;;;7.96;100.00;95979.09;5081768;28;19932;-75
2023/04/27 06:47:10;;;;;;;;;;;;;;;8.51;100.00;95966.03;5082936;28;19954;-75
2023/04/27 06:49:38;;;;;;;;;;;;;;;8.80;100.00;95964.53;5081043;28;19993;-75
2023/04/27 06:52:05;;;;;;;;;;;;;;;8.62;100.00;95970.63;5083895;28;19928;-75
2023/04/27 06:54:31;;;;;;;;;;;;;;;8.84;100.00;95970.34;5074576;28;19978;-75
2023/04/27 06:56:57;;;;;;;;;;;;;;;8.83;100.00;95977.28;5083871;28;19927;-75
2023/04/27 06:59:23;;;;;;;;;;;;;;;8.67;100.00;95978.97;5082365;28;19935;-76
2023/04/27 07:01:50;;;;;;;;;;;;;;;8.65;100.00;95967.91;5084420;28;20298;-75
2023/04/27 07:04:16;;;;;;;;;;;;;;;8.67;100.00;95979.81;5081080;28;19978;-75
2023/04/27 07:06:44;;;;;;;;;;;;;;;9.25;100.00;95978.47;5077747;28;20008;-75
2023/04/27 07:09:10;;;;;;;;;;;;;;;9.74;100.00;95978.34;5078730;28;20366;-76
2023/04/27 07:11:36;;;;;;;;;;;;;;;10.18;100.00;95972.41;5085006;28;19928;-75
2023/04/27 07:14:03;;;;;;;;;;;;;;;10.35;100.00;95979.22;5079370;28;19924;-76
2023/04/27 07:16:29;;;;;;;;;;;;;;;10.16;100.00;95977.69;5084594;28;20348;-76
2023/04/27 07:18:55;;;;;;;;;;;;;;;10.40;100.00;95969.44;5078356;28;19931;-76
2023/04/27 07:21:21;;;;;;;;;;;;;;;10.57;100.00;95981.38;5084162;28;19978;-76
2023/04/27 07:23:49;;;;;;;;;;;;;;;10.93;97.00;95974.91;5077257;28;19924;-76
2023/04/27 07:26:15;;;;;;;;;;;;;;;11.25;90.85;95973.75;5080081;28;19931;-75
2023/04/27 07:28:42;;;;;;;;;;;;;;;11.56;89.32;95979.63;5079268;28;20455;-76
2023/04/27 07:31:08;;;;;;;;;;;;;;;11.80;84.94;95966.84;5087452;28;19928;-76
2023/04/27 07:33:34;;;;;;;;;;;;;;;11.63;85.91;95966.16;5080922;28;19928;-76
2023/04/27 07:36:01;;;;;;;;;;;;;;;11.89;84.81;95966.28;5087485;28;19928;-75
2023/04/27 07:38:29;;;;;;;;;;;;;;;12.29;82.67;95964.50;5088385;28;20379;-76
2023/04/27 07:40:57;;;;;;;;;;;;;;;12.37;80.64;95965.75;5082353;28;19978;-75
2023/04/27 07:43:24;;;;;;;;;;;;;;;12.49;80.16;95960.56;5083300;28;19931;-75
2023/04/27 07:45:50;;;;;;;;;;;;;;;12.70;82.75;95965.25;5084072;28;20348;-76
2023/04/27 07:48:17;;;;;;;;;;;;;;;13.00;84.34;95955.34;5083362;28;20005;-75
2023/04/27 07:50:43;;;;;;;;;;;;;;;13.22;77.13;95961.66;5080627;28;19970;-75
2023/04/27 07:53:10;;;;;;;;;;;;;;;13.46;75.88;95962.56;5081805;28;19928;-76
2023/04/27 07:55:36;;;;;;;;;;;;;;;13.69;70.02;95968.72;5084179;28;19924;-76
2023/04/27 07:58:04;;;;;;;;;;;;;;;13.71;66.18;95960.78;5079099;28;20255;-77
2023/04/27 08:00:31;;;;;;;;;;;;;;;12.71;65.23;95957.34;5084870;28;19931;-76
2023/04/27 08:02:57;;;;;;;;;;;;;;;12.32;67.40;95958.28;5080980;28;19928;-76
2023/04/27 08:05:23;;;;;;;;;;;;;;;12.46;69.00;95954.72;5085963;28;19924;-76
2023/04/27 08:07:52;;;;;;;;;;;;;;;12.75;74.31;95957.97;5082289;28;19928;-76
2023/04/27 08:10:18;;;;;;;;;;;;;;;13.23;70.18;95958.97;5078581;28;19924;-76
2023/04/27 08:12:44;;;;;;;;;;;;;;;13.44;72.00;95961.81;5086585;28;19981;-76
2023/04/27 08:15:12;;;;;;;;;;;;;;;13.75;76.27;95963.03;5082153;28;19967;-76
2023/04/27 08:17:40;;;;;;;;;;;;;;;14.02;68.45;95943.78;5087443;28;19933;-77
2023/04/27 08:20:08;;;;;;;;;;;;;;;14.02;69.89;95948.97;5088696;28;19947;-76
2023/04/27 08:22:34;;;;;;;;;;;;;;;13.78;62.96;95951.59;5086442;28;19962;-76
2023/04/27 08:25:02;;;;;;;;;;;;;;;14.27;73.58;95942.75;5078281;28;19928;-77
2023/04/27 08:27:29;;;;;;;;;;;;;;;14.43;68.16;95937.25;5085937;28;19928;-76
2023/04/27 08:29:55;;;;;;;;;;;;;;;14.72;68.90;95938.50;5076708;28;20279;-77
2023/04/27 08:32:23;;;;;;;;;;;;;;;14.82;71.72;95940.41;5087076;28;19931;-76
2023/04/27 08:34:49;;;;;;;;;;;;;;;14.98;70.94;95935.63;5082068;28;19940;-76
2023/04/27 08:37:17;;;;;;;;;;;;;;;15.23;69.20;95937.16;5089747;28;19924;-76
2023/04/27 08:39:43;;;;;;;;;;;;;;;15.13;65.48;95931.88;5084130;28;20470;-77
2023/04/27 08:42:10;;;;;;;;;;;;;;;15.25;60.75;95937.88;5086861;28;19932;-77
2023/04/27 08:44:38;;;;;;;;;;;;;;;15.24;61.94;95929.25;5091214;28;19976;-77
2023/04/27 08:47:05;;;;;;;;;;;;;;;15.70;67.13;95930.81;5083814;28;19928;-75
2023/04/27 08:49:32;;;;;;;;;;;;;;;15.50;56.75;95926.34;5079340;28;19942;-75
2023/04/27 08:51:59;;;;;;;;;;;;;;;15.63;68.42;95928.78;5086081;28;19932;-74
2023/04/27 08:54:26;;;;;;;;;;;;;;;15.52;56.00;95932.25;5079087;28;20392;-76
2023/04/27 08:56:52;;;;;;;;;;;;;;;15.41;56.22;95927.88;5085592;28;19974;-76
2023/04/27 08:59:18;;;;;;;;;;;;;;;15.65;55.78;95922.53;5086362;28;19924;-76
2023/04/27 09:01:45;;;;;;;;;;;;;;;15.83;55.60;95929.81;5085833;28;19974;-76
2023/04/27 09:04:11;;;;;;;;;;;;;;;15.18;56.27;95934.09;5087454;28;20015;-76
2023/04/27 09:06:39;;;;;;;;;;;;;;;15.35;55.15;95927.53;5076297;28;20354;-76
2023/04/27 09:09:07;;;;;;;;;;;;;;;15.72;56.44;95928.91;5082096;28;20445;-75
2023/04/27 09:11:35;;;;;;;;;;;;;;;15.77;54.90;95930.31;5087387;28;20330;-75
2023/04/27 09:14:02;;;;;;;;;;;;;;;15.60;53.55;95937.69;5079943;28;19932;-76
2023/04/27 09:16:29;;;;;;;;;;;;;;;16.00;60.89;95931.06;5085051;28;19928;-76
2023/04/27 09:18:56;;;;;;;;;;;;;;;16.14;63.20;95938.59;5078764;28;19924;-76
2023/04/27 09:21:23;;;;;;;;;;;;;;;16.15;54.80;95933.22;5091748;28;19928;-76
2023/04/27 09:23:51;;;;;;;;;;;;;;;16.18;59.03;95945.22;5087149;28;19928;-76
2023/04/27 09:26:20;;;;;;;;;;;;;;;16.14;54.47;95928.16;5084525;28;19924;-76
2023/04/27 09:28:48;;;;;;;;;;;;;;;16.19;54.47;95929.41;5081068;28;20386;-76
2023/04/27 09:31:14;;;;;;;;;;;;;;;16.59;53.70;95933.94;5074744;28;19929;-75
2023/04/27 09:33:41;;;;;;;;;;;;;;;16.54;61.07;95932.66;5081285;28;19931;-76
2023/04/27 09:36:07;;;;;;;;;;;;;;;16.92;57.00;95947.78;5082703;28;19977;-76
2023/04/27 09:38:33;;;;;;;;;;;;;;;16.91;50.38;95933.88;5089644;28;19925;-77
2023/04/27 09:41:02;;;;;;;;;;;;;;;17.28;52.68;95929.84;5078019;28;19928;-74
2023/04/27 09:43:29;;;;;;;;;;;;;;;17.06;48.73;95939.56;5076451;28;19928;-73
2023/04/27 09:45:56;;;;;;;;;;;;;;;17.14;47.84;95934.50;5090195;28;19931;-76
2023/04/27 09:48:23;;;;;;;;;;;;;;;17.37;50.57;95936.91;5085086;28;20334;-75
2023/04/27 09:50:50;;;;;;;;;;;;;;;17.16;47.31;95935.16;5082123;28;19935;-76
2023/04/27 09:53:17;;;;;;;;;;;;;;;17.41;47.26;95935.66;5084468;28;19928;-77
2023/04/27 09:55:48;;;;;;;;;;;;;;;17.55;55.76;95924.81;5082734;28;20337;-76
2023/04/27 09:58:31;;;;;;;;;;;;;;;16.99;54.10;95927.97;5083843;28;19928;-76
2023/04/27 10:01:04;;;;;;;;;;;;;;;17.31;49.25;95932.19;5079851;28;20278;-76
2023/04/27 10:03:32;;;;;;;;;;;;;;;16.35;49.86;95930.75;5085580;28;19931;-76
2023/04/27 10:06:21;;;;;;;;;;;;;;;16.96;48.07;95930.84;5087219;28;20061;-76
2023/04/27 10:08:49;;;;;;;;;;;;;;;17.05;51.04;95927.44;5078652;28;19982;-75
2023/04/27 10:11:17;;;;;;;;;;;;;;;17.20;47.60;95927.88;5082630;28;20382;-76
2023/04/27 10:13:52;;;;;;;;;;;;;;;17.16;49.45;95924.72;5082523;28;19928;-76
2023/04/27 10:16:19;;;;;;;;;;;;;;;17.11;47.34;95921.66;5083259;28;19983;-75
2023/04/27 10:18:50;;;;;;;;;;;;;;;16.67;47.00;95923.66;5083856;28;19924;-75
2023/04/27 10:21:17;;;;;;;;;;;;;;;15.99;48.67;95925.00;5084635;28;19970;-75
2023/04/27 10:23:47;;;;;;;;;;;;;;;15.75;49.07;95924.38;5080602;28;20023;-75
2023/04/27 10:26:13;;;;;;;;;;;;;;;15.67;50.46;95920.59;5080576;28;19923;-75
2023/04/27 10:28:40;;;;;;;;;;;;;;;15.85;49.18;95913.06;5085618;28;19925;-76
2023/04/27 10:31:11;;;;;;;;;;;;;;;16.12;51.07;95917.81;5087983;28;19924;-75
2023/04/27 10:33:42;;;;;;;;;;;;;;;16.03;52.96;95917.75;5081159;28;20394;-75
2023/04/27 10:36:14;;;;;;;;;;;;;;;15.55;48.29;95913.75;5081717;28;20386;-75
2023/04/27 10:38:40;;;;;;;;;;;;;;;14.55;50.83;95923.31;5087283;28;19925;-76
2023/04/27 10:41:13;;;;;;;;;;;;;;;14.59;51.33;95923.91;5080299;28;19966;-75
2023/04/27 10:43:39;;;;;;;;;;;;;;;14.28;51.37;95928.81;5085684;28;19928;-75
2023/04/27 10:46:09;;;;;;;;;;;;;;;14.62;61.10;95924.50;5079001;28;20386;-75
2023/04/27 10:48:37;;;;;;;;;;;;;;;14.87;53.15;95918.25;5074880;28;20287;-75
2023/04/27 10:51:03;;;;;;;;;;;;;;;14.87;54.77;95922.59;5082350;28;19928;-75
2023/04/27 10:53:33;;;;;;;;;;;;;;;15.00;53.45;95918.09;5086405;28;19924;-75
2023/04/27 10:56:00;;;;;;;;;;;;;;;14.43;51.22;95916.41;5081833;28;19924;-75
2023/04/27 10:58:26;;;;;;;;;;;;;;;14.70;52.85;95923.91;5084845;28;19923;-75
2023/04/27 11:00:52;;;;;;;;;;;;;;;14.66;50.63;95925.94;5081249;28;19924;-75
2023/04/27 11:03:20;;;;;;;;;;;;;;;15.01;52.47;95920.59;5083237;28;19932;-75
2023/04/27 11:05:50;;;;;;;;;;;;;;;15.35;57.00;95915.34;5082336;28;21283;-75
2023/04/27 11:08:17;;;;;;;;;;;;;;;15.70;60.82;95917.75;5075374;28;19924;-75
2023/04/27 11:10:44;;;;;;;;;;;;;;;15.91;58.34;95916.97;5083328;28;19947;-75
2023/04/27 11:13:11;;;;;;;;;;;;;;;15.85;58.16;95907.03;5079165;28;19924;-75
2023/04/27 11:15:45;;;;;;;;;;;;;;;15.72;52.27;95900.19;5081697;28;19924;-75
2023/04/27 11:18:11;;;;;;;;;;;;;;;16.10;54.12;95898.00;5080902;28;19944;-75
2023/04/27 11:20:37;;;;;;;;;;;;;;;16.39;62.37;95903.44;5081682;28;19929;-75
2023/04/27 11:23:05;;;;;;;;;;;;;;;16.24;55.13;95900.31;5080255;28;19935;-75
2023/04/27 11:25:32;;;;;;;;;;;;;;;15.63;49.94;95907.91;5074179;28;20343;-75
2023/04/27 11:27:58;;;;;;;;;;;;;;;15.55;53.88;95916.34;5089387;28;19925;-75
2023/04/27 11:30:24;;;;;;;;;;;;;;;15.07;50.32;95919.28;5074226;28;19929;-75
2023/04/27 11:32:52;;;;;;;;;;;;;;;14.93;51.20;95919.53;5086351;28;19924;-75
2023/04/27 11:35:18;;;;;;;;;;;;;;;15.05;51.60;95922.97;5082837;28;19940;-75
2023/04/27 11:37:46;;;;;;;;;;;;;;;15.16;53.62;95920.34;5088522;28;19969;-75
2023/04/27 11:40:14;;;;;;;;;;;;;;;15.40;55.51;95914.97;5085195;28;20314;-75
2023/04/27 11:42:45;;;;;;;;;;;;;;;15.56;58.41;95909.34;5081263;28;19950;-75
2023/04/27 11:45:12;;;;;;;;;;;;;;;15.69;60.07;95905.66;5079870;28;20386;-74
2023/04/27 11:47:39;;;;;;;;;;;;;;;16.15;61.10;95901.06;5082299;28;19932;-75
2023/04/27 11:50:07;;;;;;;;;;;;;;;15.90;59.42;95899.63;5087573;28;19924;-74
2023/04/27 11:52:34;;;;;;;;;;;;;;;15.94;56.24;95899.28;5083837;28;20345;-75
2023/04/27 11:55:01;;;;;;;;;;;;;;;15.90;54.20;95891.78;5087037;28;19928;-75
2023/04/27 11:57:30;;;;;;;;;;;;;;;16.09;61.28;95894.56;5085940;28;20336;-75
2023/04/27 11:59:57;;;;;;;;;;;;;;;16.02;52.91;95888.19;5075202;28;19924;-76
2023/04/27 12:02:24;;;;;;;;;;;;;;;15.91;53.45;95886.47;5087586;28;19928;-76
2023/04/27 12:04:50;;;;;;;;;;;;;;;15.94;57.93;95885.34;5083157;28;19932;-76
2023/04/27 12:07:17;;;;;;;;;;;;;;;15.66;61.75;95889.41;5089314;28;19932;-75
2023/04/27 12:09:43;;;;;;;;;;;;;;;15.25;57.84;95883.09;5084275;28;20305;-75
2023/04/27 12:12:10;;;;;;;;;;;;;;;15.28;63.82;95892.44;5090300;28;19978;-76
2023/04/27 12:14:38;;;;;;;;;;;;;;;15.49;60.88;95890.72;5080951;28;19925;-75
2023/04/27 12:17:04;;;;;;;;;;;;;;;15.32;56.65;95886.06;5090598;28;20348;-75
2023/04/27 12:19:30;;;;;;;;;;;;;;;15.30;57.28;95893.97;5084514;28;19924;-75
2023/04/27 12:21:57;;;;;;;;;;;;;;;14.73;54.49;95890.63;5090679;28;19924;-75
2023/04/27 12:24:24;;;;;;;;;;;;;;;15.15;63.61;95898.63;5088959;28;19932;-75
2023/04/27 12:26:50;;;;;;;;;;;;;;;15.24;57.60;95892.72;5085533;28;20398;-76
2023/04/27 12:29:16;;;;;;;;;;;;;;;15.23;58.42;95895.41;5085582;28;19931;-76
2023/04/27 12:31:44;;;;;;;;;;;;;;;15.37;57.57;95896.94;5079205;28;20023;-75
2023/04/27 12:34:10;;;;;;;;;;;;;;;15.17;59.94;95895.94;5082310;28;20460;-76
2023/04/27 12:36:37;;;;;;;;;;;;;;;15.08;58.96;95896.63;5084980;28;20302;-76
2023/04/27 12:39:13;;;;;;;;;;;;;;;15.03;57.54;95894.41;5087113;28;19924;-76
2023/04/27 12:41:39;;;;;;;;;;;;;;;15.00;65.93;95892.03;5085229;28;19936;-74
2023/04/27 12:44:05;;;;;;;;;;;;;;;15.16;61.37;95892.47;5090691;28;19928;-75